Time;durP1;ratioP1;P1;durP2;ratioP2;P2;SDS_P1;SDS_P2;PMS_P1;PMS_P2;Temp;Humidity;BMP_temperature;BMP_pressure;BME280_temperature;BME280_humidity;BME280_pressure;Samples;Min_cycle;Max_cycle;Signal;HPM_P1;HPM_P2
2022/05/04 00:01:08;;;;;;;4.43;2.40;;;11.40;99.90;;;;;;6246791;22;20089;-86
2022/05/04 00:03:39;;;;;;;5.93;2.78;;;11.40;99.90;;;;;;6248673;22;20012;-87
2022/05/04 00:06:08;;;;;;;4.32;2.13;;;11.30;99.90;;;;;;6248021;22;20430;-87
2022/05/04 00:08:34;;;;;;;4.97;2.50;;;11.30;99.90;;;;;;6275551;22;19999;-86
2022/05/04 00:11:00;;;;;;;4.93;2.15;;;11.30;99.90;;;;;;6248587;22;20093;-86
2022/05/04 00:13:26;;;;;;;4.78;2.40;;;11.30;99.90;;;;;;6274711;22;20011;-87
2022/05/04 00:15:52;;;;;;;4.97;2.28;;;11.30;99.90;;;;;;6275252;22;20004;-87
2022/05/04 00:18:18;;;;;;;5.10;2.13;;;11.40;99.90;;;;;;6247887;22;20061;-87
2022/05/04 00:20:44;;;;;;;5.50;2.22;;;11.30;99.90;;;;;;6249414;22;20014;-87
2022/05/04 00:23:10;;;;;;;5.93;2.50;;;11.30;99.90;;;;;;6276428;22;20004;-85
2022/05/04 00:25:36;;;;;;;5.30;2.20;;;11.20;99.90;;;;;;6248455;22;20007;-87
2022/05/04 00:28:02;;;;;;;3.70;1.98;;;11.20;99.90;;;;;;6248864;22;20430;-87
2022/05/04 00:30:29;;;;;;;6.13;2.40;;;11.20;99.90;;;;;;6247656;22;20008;-87
2022/05/04 00:32:54;;;;;;;4.63;2.30;;;11.10;99.90;;;;;;6248031;22;20000;-87
2022/05/04 00:35:20;;;;;;;5.22;2.33;;;11.10;99.90;;;;;;6248318;22;20008;-88
2022/05/04 00:37:46;;;;;;;6.13;2.63;;;11.20;99.90;;;;;;6246948;22;20005;-87
2022/05/04 00:40:11;;;;;;;4.22;2.13;;;11.10;99.90;;;;;;6275471;22;20023;-87
2022/05/04 00:42:37;;;;;;;5.30;2.45;;;11.00;99.90;;;;;;6273462;22;20008;-87
2022/05/04 00:45:03;;;;;;;4.25;2.10;;;10.90;99.90;;;;;;6274120;22;20000;-86
2022/05/04 00:47:29;;;;;;;4.65;2.50;;;10.90;99.90;;;;;;6275417;22;20010;-86
2022/05/04 00:49:56;;;;;;;4.43;2.38;;;11.00;99.90;;;;;;6274507;22;20011;-87
2022/05/04 00:52:23;;;;;;;5.28;2.20;;;10.80;99.90;;;;;;6270221;22;20011;-86
2022/05/04 00:54:50;;;;;;;5.60;2.42;;;10.90;99.90;;;;;;6275179;22;20023;-87
2022/05/04 00:58:54;;;;;;;4.75;1.85;;;11.00;99.90;;;;;;6247931;22;20004;-87
2022/05/04 01:00:03;;;;;;;3.92;1.95;;;10.90;99.90;;;;;;6272953;22;20007;-87
2022/05/04 01:02:28;;;;;;;4.25;2.22;;;11.00;99.90;;;;;;6247381;22;20082;-87
2022/05/04 01:04:54;;;;;;;4.82;2.83;;;11.00;99.90;;;;;;6248308;22;20042;-88
2022/05/04 01:07:21;;;;;;;5.50;2.95;;;11.00;99.90;;;;;;6247583;22;20018;-87
2022/05/04 01:09:47;;;;;;;5.28;2.50;;;11.00;99.90;;;;;;6247474;22;20004;-87
2022/05/04 01:12:13;;;;;;;3.75;1.90;;;11.10;99.90;;;;;;6247306;22;20014;-87
2022/05/04 01:14:38;;;;;;;4.45;2.38;;;11.00;99.90;;;;;;6269517;22;20417;-86
2022/05/04 01:17:04;;;;;;;5.10;2.60;;;11.10;99.90;;;;;;6302882;22;19996;-87
2022/05/04 01:19:29;;;;;;;8.27;2.25;;;11.10;99.90;;;;;;6270332;22;20003;-86
2022/05/04 01:21:55;;;;;;;4.40;2.30;;;11.10;99.90;;;;;;6258177;22;19999;-87
2022/05/04 01:24:21;;;;;;;4.38;2.28;;;11.20;99.90;;;;;;6245483;22;20000;-87
2022/05/04 01:26:46;;;;;;;4.88;2.83;;;11.10;99.90;;;;;;6247529;22;20047;-87
2022/05/04 01:29:14;;;;;;;6.80;2.40;;;11.20;99.90;;;;;;6246923;22;20000;-86
2022/05/04 01:31:40;;;;;;;4.68;2.33;;;11.10;99.90;;;;;;6247672;22;20133;-87
2022/05/04 01:34:06;;;;;;;3.97;2.13;;;11.10;99.90;;;;;;6242842;22;20004;-87
2022/05/04 01:36:31;;;;;;;4.00;2.17;;;11.00;99.90;;;;;;6274013;22;20022;-86
2022/05/04 01:38:57;;;;;;;3.88;2.30;;;11.10;99.90;;;;;;6274587;22;20000;-87
2022/05/04 01:44:07;;;;;;;4.65;2.00;;;10.90;99.90;;;;;;6275220;22;20517;-86
2022/05/04 01:46:32;;;;;;;4.32;2.20;;;11.00;99.90;;;;;;6247147;22;20007;-87
2022/05/04 01:48:58;;;;;;;3.40;2.38;;;10.90;99.90;;;;;;6275603;22;20418;-86
2022/05/04 01:51:24;;;;;;;4.38;2.65;;;11.00;99.90;;;;;;6246981;22;20145;-86
2022/05/04 01:53:49;;;;;;;4.20;2.53;;;10.90;99.90;;;;;;6247319;22;20011;-87
2022/05/04 01:56:15;;;;;;;4.65;2.60;;;11.00;99.90;;;;;;6273540;22;19995;-87
2022/05/04 01:58:41;;;;;;;5.13;2.30;;;11.00;99.90;;;;;;6247724;22;20505;-87
2022/05/04 02:01:07;;;;;;;5.22;2.55;;;11.20;99.90;;;;;;6244754;22;20003;-87
2022/05/04 02:03:33;;;;;;;5.03;2.22;;;11.10;99.90;;;;;;6246532;22;20014;-88
2022/05/04 02:05:59;;;;;;;5.03;2.38;;;11.30;99.90;;;;;;6246496;22;20043;-87
2022/05/04 02:08:25;;;;;;;4.38;2.38;;;11.20;99.90;;;;;;6273176;22;20427;-87
2022/05/04 02:10:50;;;;;;;4.80;2.45;;;11.20;99.90;;;;;;6262070;22;20089;-85
2022/05/04 02:13:16;;;;;;;6.13;2.50;;;11.30;99.90;;;;;;6263407;22;20004;-86
2022/05/04 02:15:41;;;;;;;5.07;2.33;;;11.20;99.90;;;;;;6247286;22;20008;-86
2022/05/04 02:18:07;;;;;;;4.78;2.50;;;11.30;99.90;;;;;;6248208;22;20042;-87
2022/05/04 02:20:32;;;;;;;5.25;2.80;;;11.10;99.90;;;;;;6247261;22;20010;-87
2022/05/04 02:22:58;;;;;;;4.78;2.28;;;11.20;99.90;;;;;;6248439;22;20023;-86
2022/05/04 02:25:24;;;;;;;4.50;2.38;;;11.10;99.90;;;;;;6246597;22;20004;-86
2022/05/04 02:27:49;;;;;;;5.30;2.85;;;11.10;99.90;;;;;;6247267;22;20043;-86
2022/05/04 02:30:15;;;;;;;4.18;2.80;;;11.00;99.90;;;;;;6246057;22;19999;-87
2022/05/04 02:32:40;;;;;;;5.03;2.63;;;11.00;99.90;;;;;;6249147;22;20473;-87
2022/05/04 02:37:57;;;;;;;8.13;3.25;;;11.00;99.90;;;;;;6293048;22;20072;-86
2022/05/04 02:40:26;;;;;;;5.07;2.45;;;11.00;99.90;;;;;;6266935;22;20086;-86
2022/05/04 02:42:52;;;;;;;3.78;2.10;;;11.20;99.90;;;;;;6267460;22;20015;-86
2022/05/04 02:45:18;;;;;;;4.65;2.30;;;11.10;99.90;;;;;;6267336;22;20011;-87
2022/05/04 02:47:43;;;;;;;4.40;2.50;;;11.10;99.90;;;;;;6262470;22;20039;-87
2022/05/04 02:50:09;;;;;;;5.10;2.80;;;11.10;99.90;;;;;;6273669;22;20003;-87
2022/05/04 02:52:35;;;;;;;5.53;2.50;;;11.10;99.90;;;;;;6247874;22;20022;-87
2022/05/04 02:55:01;;;;;;;3.80;2.05;;;11.20;99.90;;;;;;6273824;22;20069;-86
2022/05/04 02:57:27;;;;;;;5.82;3.10;;;11.20;99.90;;;;;;6247012;22;20430;-87
2022/05/04 02:59:52;;;;;;;6.05;2.70;;;11.10;99.90;;;;;;6247000;22;20007;-87
2022/05/04 03:02:27;;;;;;;4.60;2.22;;;11.10;99.90;;;;;;6246147;22;20050;-87
2022/05/04 03:05:03;;;;;;;5.65;2.67;;;11.10;99.90;;;;;;6247887;22;20126;-86
2022/05/04 03:07:29;;;;;;;4.97;2.53;;;11.10;99.90;;;;;;6273890;22;20010;-86
2022/05/04 03:09:56;;;;;;;4.72;2.40;;;11.10;99.90;;;;;;6274308;22;20159;-87
2022/05/04 03:12:22;;;;;;;4.28;2.08;;;11.00;99.90;;;;;;6247158;22;20315;-86
2022/05/04 03:14:47;;;;;;;5.28;2.47;;;11.00;99.90;;;;;;6273029;22;20007;-86
2022/05/04 03:17:13;;;;;;;5.57;2.83;;;11.00;99.90;;;;;;6246825;22;20004;-86
2022/05/04 03:19:39;;;;;;;5.28;2.92;;;11.00;99.90;;;;;;6246857;22;20358;-86
2022/05/04 03:22:05;;;;;;;6.00;3.15;;;11.00;99.90;;;;;;6248321;22;20326;-87
2022/05/04 03:24:31;;;;;;;5.25;2.22;;;11.00;99.90;;;;;;6246690;22;20015;-86
2022/05/04 03:26:57;;;;;;;6.53;3.50;;;11.00;99.90;;;;;;6246810;22;20003;-87
2022/05/04 03:29:22;;;;;;;5.38;2.95;;;11.00;99.90;;;;;;6246613;22;20086;-87
2022/05/04 03:31:48;;;;;;;5.95;3.28;;;11.10;99.90;;;;;;6246787;22;20475;-87
2022/05/04 03:34:14;;;;;;;5.07;2.63;;;11.00;99.90;;;;;;6247262;22;20014;-87
2022/05/04 03:36:40;;;;;;;4.75;2.42;;;11.10;99.90;;;;;;6263136;22;20003;-86
2022/05/04 03:39:06;;;;;;;5.32;3.15;;;11.10;99.90;;;;;;6273428;22;20106;-86
2022/05/04 03:41:35;;;;;;;5.72;2.67;;;11.00;99.90;;;;;;6294766;22;20023;-87
2022/05/04 03:44:01;;;;;;;6.47;2.90;;;11.00;99.90;;;;;;6258973;22;20410;-87
2022/05/04 03:46:28;;;;;;;5.97;3.10;;;10.90;99.90;;;;;;6246797;22;20004;-87
2022/05/04 03:48:56;;;;;;;5.35;3.13;;;10.90;99.90;;;;;;6248263;22;20346;-87
2022/05/04 03:51:22;;;;;;;4.82;2.47;;;10.90;99.90;;;;;;6275251;22;20004;-87
2022/05/04 03:53:54;;;;;;;6.38;2.70;;;11.00;99.90;;;;;;6257329;22;20023;-89
2022/05/04 03:56:25;;;;;;;4.95;2.53;;;11.00;99.90;;;;;;6250831;23;20024;-88
2022/05/04 03:58:53;;;;;;;4.85;2.67;;;11.10;99.90;;;;;;6224637;23;20046;-88
2022/05/04 04:01:39;;;;;;;5.03;2.85;;;11.10;99.90;;;;;;6251635;23;20004;-88
2022/05/04 04:04:05;;;;;;;6.32;2.85;;;11.10;99.90;;;;;;6223932;23;20004;-87
2022/05/04 04:06:39;;;;;;;5.88;3.10;;;11.10;99.90;;;;;;6222833;23;20494;-88
2022/05/04 04:09:28;;;;;;;4.70;2.80;;;11.10;99.90;;;;;;6216386;23;20028;-88
2022/05/04 04:11:56;;;;;;;5.10;2.63;;;11.10;99.90;;;;;;6218792;23;20505;-88
2022/05/04 04:14:23;;;;;;;4.82;3.05;;;11.10;99.90;;;;;;6220706;23;20380;-88
2022/05/04 04:16:49;;;;;;;9.52;3.03;;;11.10;99.90;;;;;;6245534;23;20004;-88
2022/05/04 04:19:17;;;;;;;5.28;2.72;;;11.20;99.90;;;;;;6241730;23;20003;-88
2022/05/04 04:21:52;;;;;;;5.70;2.75;;;11.10;99.90;;;;;;6220192;23;20004;-88
2022/05/04 04:24:18;;;;;;;5.72;2.90;;;11.00;99.90;;;;;;6245906;22;20380;-87
2022/05/04 04:26:51;;;;;;;5.38;2.80;;;11.00;99.90;;;;;;6244616;23;20022;-88
2022/05/04 04:29:22;;;;;;;5.45;2.67;;;11.10;99.90;;;;;;6246758;23;20018;-88
2022/05/04 04:31:47;;;;;;;5.40;2.75;;;11.10;99.90;;;;;;6247139;23;20000;-88
2022/05/04 04:34:16;;;;;;;6.00;2.60;;;11.20;99.90;;;;;;6216262;23;20254;-88
2022/05/04 04:36:56;;;;;;;5.10;2.72;;;11.20;99.90;;;;;;6218584;23;20004;-88
2022/05/04 04:39:22;;;;;;;4.85;2.80;;;11.20;99.90;;;;;;6219976;23;20008;-88
2022/05/04 04:41:50;;;;;;;5.35;3.05;;;11.20;99.90;;;;;;6222805;23;20001;-88
2022/05/04 04:44:16;;;;;;;4.95;2.78;;;11.40;99.90;;;;;;6221476;23;19996;-88
2022/05/04 04:46:54;;;;;;;5.00;2.63;;;11.20;99.90;;;;;;6245152;23;20067;-89
2022/05/04 05:38:10;;;;;;;4.72;2.92;;;11.60;99.90;;;;;;6250882;23;20020;-88
2022/05/04 05:40:39;;;;;;;5.07;2.88;;;11.60;99.90;;;;;;6248367;23;20415;-88
2022/05/04 05:43:05;;;;;;;5.38;2.97;;;11.60;99.90;;;;;;6251636;22;20052;-88
2022/05/04 05:45:31;;;;;;;5.22;2.83;;;11.70;99.90;;;;;;6246513;23;20019;-87
2022/05/04 05:48:03;;;;;;;6.03;2.60;;;11.70;99.90;;;;;;6248496;23;20346;-87
2022/05/04 05:50:34;;;;;;;5.95;3.35;;;11.70;99.90;;;;;;6244261;23;20016;-88
2022/05/04 05:53:00;;;;;;;5.28;2.58;;;11.60;99.90;;;;;;6247423;23;20074;-87
2022/05/04 05:55:26;;;;;;;4.82;2.55;;;11.70;99.90;;;;;;6246832;23;20070;-87
2022/05/04 05:57:51;;;;;;;5.47;2.75;;;11.60;99.90;;;;;;6249222;22;20008;-88
2022/05/04 06:00:18;;;;;;;8.05;3.47;;;11.70;99.90;;;;;;6248341;23;20004;-88
2022/05/04 06:02:45;;;;;;;4.88;2.67;;;11.70;99.90;;;;;;6250588;22;20011;-89
2022/05/04 06:05:10;;;;;;;5.70;2.90;;;11.70;99.90;;;;;;6249583;23;20007;-88
2022/05/04 06:07:39;;;;;;;4.88;2.72;;;11.80;99.90;;;;;;6250399;22;20000;-89
2022/05/04 06:10:13;;;;;;;4.93;2.22;;;11.80;99.90;;;;;;6251963;22;20053;-88
2022/05/04 06:12:38;;;;;;;4.70;2.45;;;11.90;99.90;;;;;;6250168;23;20011;-88
2022/05/04 06:15:19;;;;;;;5.25;2.85;;;11.90;99.90;;;;;;6250244;23;19997;-88
2022/05/04 06:17:47;;;;;;;4.70;2.47;;;11.90;99.90;;;;;;6249504;23;20031;-88
2022/05/04 06:20:13;;;;;;;7.57;2.63;;;11.90;99.90;;;;;;6246006;23;20008;-88
2022/05/04 06:22:39;;;;;;;5.68;2.67;;;12.00;99.90;;;;;;6245751;23;20294;-88
2022/05/04 06:25:08;;;;;;;5.38;2.70;;;11.90;99.90;;;;;;6249686;23;20107;-88
2022/05/04 06:27:33;;;;;;;6.53;2.80;;;12.00;99.90;;;;;;6249471;23;20004;-88
2022/05/04 06:35:38;;;;;;;4.38;2.42;;;11.90;99.90;;;;;;6245696;23;20198;-89
2022/05/04 06:38:05;;;;;;;5.00;2.72;;;11.70;99.90;;;;;;6276772;22;20015;-89
2022/05/04 06:40:34;;;;;;;5.10;2.92;;;11.60;99.90;;;;;;6252126;22;20004;-88
2022/05/04 06:43:04;;;;;;;5.07;2.83;;;11.60;99.90;;;;;;6279337;22;20000;-88
2022/05/04 06:45:32;;;;;;;5.13;2.70;;;11.50;99.90;;;;;;6251983;22;20030;-88
2022/05/04 06:48:06;;;;;;;4.65;2.50;;;11.50;99.90;;;;;;6249766;22;20010;-88
2022/05/04 06:50:41;;;;;;;5.82;2.92;;;11.50;99.90;;;;;;6250521;22;20007;-89
2022/05/04 06:53:17;;;;;;;5.88;2.90;;;11.50;99.90;;;;;;6251315;22;20034;-88
2022/05/04 06:55:47;;;;;;;6.70;3.05;;;11.50;99.90;;;;;;6252708;22;20077;-88
2022/05/04 06:58:13;;;;;;;5.75;3.35;;;11.50;99.90;;;;;;6275805;22;20003;-88
2022/05/04 07:01:12;;;;;;;5.43;3.15;;;11.40;99.90;;;;;;6249445;22;20010;-87
2022/05/04 07:04:05;;;;;;;6.47;3.28;;;11.50;99.90;;;;;;6265280;22;20020;-87
2022/05/04 07:06:58;;;;;;;5.40;2.60;;;11.70;99.90;;;;;;6229123;22;20028;-86
2022/05/04 07:09:59;;;;;;;5.10;2.70;;;11.80;99.90;;;;;;6241154;23;20001;-86
2022/05/04 07:13:13;;;;;;;8.85;3.50;;;12.00;99.90;;;;;;6238114;23;20426;-87
2022/05/04 07:16:08;;;;;;;6.13;2.85;;;12.00;99.90;;;;;;6213406;23;20004;-86
2022/05/04 07:19:06;;;;;;;5.13;2.92;;;12.00;99.90;;;;;;6182419;23;20008;-86
2022/05/04 07:24:56;;;;;;;6.20;3.50;;;12.00;99.90;;;;;;6242345;22;20024;-86
2022/05/04 07:27:24;;;;;;;4.90;2.80;;;12.10;99.90;;;;;;6243075;23;20002;-87
2022/05/04 07:29:53;;;;;;;5.45;2.90;;;12.30;99.90;;;;;;6244145;23;20454;-87
2022/05/04 07:32:21;;;;;;;4.90;2.53;;;12.50;99.90;;;;;;6243981;23;20054;-88
2022/05/04 07:34:50;;;;;;;5.65;2.88;;;12.30;99.90;;;;;;6244966;22;20377;-88
2022/05/04 07:37:25;;;;;;;6.10;2.78;;;12.60;99.90;;;;;;6242838;23;20097;-88
2022/05/04 07:42:53;;;;;;;5.00;2.45;;;12.70;99.90;;;;;;6214619;23;20028;-88
2022/05/04 07:45:21;;;;;;;5.88;2.83;;;12.90;99.90;;;;;;6214251;23;20023;-88
2022/05/04 07:47:57;;;;;;;5.07;2.30;;;13.00;99.90;;;;;;6215499;23;20016;-88
2022/05/04 07:50:25;;;;;;;5.30;2.60;;;13.10;99.90;;;;;;6215580;23;20048;-88
2022/05/04 07:52:53;;;;;;;5.57;2.38;;;13.10;99.90;;;;;;6213946;23;20459;-88
2022/05/04 07:55:30;;;;;;;5.85;2.70;;;13.10;99.90;;;;;;6214601;23;20114;-89
2022/05/04 07:57:59;;;;;;;4.90;2.50;;;13.10;99.90;;;;;;6215120;23;20075;-88
2022/05/04 08:06:01;;;;;;;4.82;2.50;;;13.00;99.90;;;;;;6213111;23;20474;-87
2022/05/04 08:08:37;;;;;;;6.90;2.90;;;12.90;99.90;;;;;;6211127;23;20087;-86
2022/05/04 08:11:03;;;;;;;7.38;2.80;;;12.80;99.90;;;;;;6236630;23;20007;-87
2022/05/04 08:13:37;;;;;;;6.30;2.92;;;12.80;99.90;;;;;;6209957;23;20009;-86
2022/05/04 08:16:07;;;;;;;6.55;3.25;;;12.80;99.90;;;;;;6213500;23;20396;-88
2022/05/04 08:18:33;;;;;;;5.15;2.83;;;12.80;99.90;;;;;;6211669;23;20004;-88
2022/05/04 08:21:01;;;;;;;6.55;3.08;;;12.80;99.90;;;;;;6212036;23;20015;-87
2022/05/04 08:23:27;;;;;;;5.47;2.90;;;12.80;99.90;;;;;;6216755;23;20103;-87
2022/05/04 08:25:53;;;;;;;5.00;2.70;;;12.80;99.90;;;;;;6218066;23;20043;-87
2022/05/04 08:28:19;;;;;;;5.72;2.85;;;12.80;99.90;;;;;;6244910;23;20047;-86
2022/05/04 08:30:45;;;;;;;5.60;2.58;;;12.90;99.90;;;;;;6244948;23;20008;-87
2022/05/04 08:33:10;;;;;;;5.22;2.42;;;12.90;99.90;;;;;;6245465;22;20075;-86
2022/05/04 08:35:36;;;;;;;3.03;1.63;;;12.90;99.90;;;;;;6244126;23;19996;-86
2022/05/04 08:38:02;;;;;;;6.50;2.38;;;13.00;99.90;;;;;;6244502;23;20007;-86
2022/05/04 08:40:29;;;;;;;4.30;2.10;;;12.90;99.90;;;;;;6211401;23;20095;-86
2022/05/04 08:42:57;;;;;;;4.45;2.22;;;13.00;99.90;;;;;;6241177;22;20434;-87
2022/05/04 08:45:23;;;;;;;4.07;1.98;;;13.00;99.90;;;;;;6244598;23;20004;-87
2022/05/04 08:47:50;;;;;;;4.22;1.40;;;13.00;99.90;;;;;;6216189;23;20449;-87
2022/05/04 08:50:17;;;;;;;4.65;2.28;;;13.10;99.90;;;;;;6243302;23;20032;-86
2022/05/04 08:52:54;;;;;;;5.63;1.83;;;13.00;99.90;;;;;;6216579;23;20397;-87
2022/05/04 08:55:24;;;;;;;3.95;2.05;;;12.90;99.90;;;;;;6216621;23;20008;-86
2022/05/04 08:57:50;;;;;;;4.10;1.80;;;13.00;99.90;;;;;;6214445;23;20004;-87
2022/05/04 09:00:20;;;;;;;6.00;2.08;;;13.10;99.90;;;;;;6242783;23;20095;-87
2022/05/04 09:02:46;;;;;;;4.45;2.40;;;13.10;99.90;;;;;;6216500;23;20008;-87
2022/05/04 09:05:23;;;;;;;6.18;2.10;;;13.20;99.90;;;;;;6233426;22;20253;-86
2022/05/04 09:07:51;;;;;;;6.22;2.20;;;13.20;99.90;;;;;;6243390;23;20103;-87
2022/05/04 09:10:24;;;;;;;5.72;2.22;;;13.30;99.90;;;;;;6217372;23;20039;-86
2022/05/04 09:12:59;;;;;;;6.47;2.70;;;13.40;99.90;;;;;;6216896;22;20012;-86
2022/05/04 09:15:34;;;;;;;6.15;3.50;;;13.50;99.90;;;;;;6244259;23;20076;-87
2022/05/04 09:18:15;;;;;;;5.97;3.08;;;13.50;99.90;;;;;;6216695;23;20066;-88
2022/05/04 09:23:28;;;;;;;5.43;2.50;;;13.70;99.90;;;;;;6252162;22;20077;-88
2022/05/04 09:26:08;;;;;;;5.13;2.58;;;13.80;99.90;;;;;;6216217;23;20062;-88
2022/05/04 09:28:35;;;;;;;4.13;2.03;;;13.80;99.90;;;;;;6217258;23;20043;-88
2022/05/04 09:31:18;;;;;;;5.25;2.80;;;13.80;99.90;;;;;;6217320;23;20008;-88
2022/05/04 09:34:03;;;;;;;5.93;2.70;;;13.90;99.90;;;;;;6217696;23;20008;-88
2022/05/04 09:45:12;;;;;;;4.50;2.67;;;14.60;99.90;;;;;;6243838;22;20082;-88
2022/05/04 09:47:41;;;;;;;7.15;3.60;;;14.90;99.90;;;;;;6215967;23;20014;-87
2022/05/04 09:50:21;;;;;;;5.35;2.70;;;14.90;99.90;;;;;;6244333;23;20079;-87
2022/05/04 09:53:20;;;;;;;6.20;2.53;;;15.10;99.90;;;;;;6217250;23;20004;-87
2022/05/04 09:55:54;;;;;;;4.38;2.03;;;15.20;99.90;;;;;;6213660;23;20000;-86
2022/05/04 09:58:28;;;;;;;3.55;1.95;;;15.20;99.90;;;;;;6243639;23;20431;-87
2022/05/04 10:00:59;;;;;;;4.97;1.98;;;15.20;99.90;;;;;;6216180;23;20012;-87
2022/05/04 10:03:32;;;;;;;3.42;1.88;;;15.20;99.90;;;;;;6216068;23;20032;-87
2022/05/04 10:06:00;;;;;;;2.80;1.67;;;15.30;99.90;;;;;;6242297;23;20011;-87
2022/05/04 10:08:27;;;;;;;4.80;2.00;;;15.40;99.90;;;;;;6243217;23;20004;-87
2022/05/04 10:10:56;;;;;;;4.60;1.80;;;15.50;99.90;;;;;;6217273;23;20154;-87
2022/05/04 10:13:22;;;;;;;3.50;1.80;;;15.60;99.90;;;;;;6243454;22;20000;-87
2022/05/04 10:15:53;;;;;;;4.28;1.58;;;15.60;99.90;;;;;;6216397;23;20010;-88
2022/05/04 10:18:24;;;;;;;3.80;1.77;;;15.70;99.90;;;;;;6215632;23;20000;-87
2022/05/04 10:21:11;;;;;;;3.10;1.48;;;15.50;99.90;;;;;;6216909;23;20066;-87
2022/05/04 10:23:46;;;;;;;3.65;1.48;;;15.60;99.90;;;;;;6216628;23;20035;-87
2022/05/04 10:26:14;;;;;;;3.08;1.67;;;15.70;99.90;;;;;;6219298;23;20004;-88
2022/05/04 10:38:38;;;;;;;;;;;16.80;99.90;;;;;;6131404;23;20153;-87
2022/05/04 10:41:32;;;;;;;3.03;1.65;;;17.30;99.90;;;;;;6212791;23;19907;-88
2022/05/04 10:44:26;;;;;;;6.07;2.47;;;17.80;99.90;;;;;;6214531;23;20000;-89
2022/05/04 10:46:57;;;;;;;5.57;2.53;;;18.00;99.90;;;;;;6211468;23;20084;-91
2022/05/04 10:50:01;;;;;;;4.20;2.27;;;18.20;99.90;;;;;;6210559;23;20320;-88
2022/05/04 10:52:45;;;;;;;4.22;2.55;;;18.50;99.90;;;;;;6190917;23;20032;-88
2022/05/04 10:55:21;;;;;;;4.93;2.35;;;18.70;99.90;;;;;;6212036;23;19997;-88
2022/05/04 10:58:18;;;;;;;4.05;2.20;;;18.60;99.90;;;;;;6211288;23;20012;-88
2022/05/04 11:01:23;;;;;;;4.43;2.60;;;18.30;99.90;;;;;;6210105;23;20016;-89
2022/05/04 11:04:14;;;;;;;4.53;2.42;;;18.30;99.90;;;;;;6211868;23;20047;-87
2022/05/04 11:06:58;;;;;;;5.28;2.47;;;18.20;99.90;;;;;;6234614;23;20004;-88
2022/05/04 11:09:32;;;;;;;3.83;1.95;;;18.50;99.90;;;;;;6209296;23;20012;-89
2022/05/04 11:12:04;;;;;;;3.90;2.10;;;18.70;99.90;;;;;;6210573;23;20008;-89
2022/05/04 11:14:32;;;;;;;4.32;2.28;;;18.90;99.90;;;;;;6210250;23;20009;-88
2022/05/04 11:17:01;;;;;;;4.57;2.70;;;19.10;99.90;;;;;;6211505;23;20004;-88
2022/05/04 11:19:32;;;;;;;2.47;1.33;;;19.40;99.90;;;;;;6236271;23;20058;-89
2022/05/04 11:21:58;;;;;;;4.68;2.00;;;19.20;99.90;;;;;;6212903;23;20003;-89
2022/05/04 11:24:31;;;;;;;3.38;1.90;;;19.10;99.90;;;;;;6210794;23;20000;-89
2022/05/04 11:26:57;;;;;;;4.45;1.50;;;19.10;99.90;;;;;;6236781;23;20015;-88
2022/05/04 11:29:28;;;;;;;3.10;1.38;;;19.10;99.90;;;;;;6211530;23;20005;-89
2022/05/04 11:32:04;;;;;;;3.28;1.60;;;19.10;99.90;;;;;;6216022;23;20104;-89
2022/05/04 11:34:40;;;;;;;3.10;1.20;;;19.10;99.90;;;;;;6241885;23;20035;-89
2022/05/04 11:37:08;;;;;;;2.63;1.23;;;19.00;99.90;;;;;;6242687;23;20430;-89
2022/05/04 11:39:35;;;;;;;2.50;1.20;;;18.90;99.90;;;;;;6186074;23;20160;-89
2022/05/04 11:42:09;;;;;;;3.55;1.55;;;19.00;99.90;;;;;;6186786;23;20001;-89
2022/05/04 11:44:36;;;;;;;2.40;1.10;;;19.00;99.90;;;;;;6186803;23;20016;-88
2022/05/04 11:47:07;;;;;;;2.25;0.98;;;19.10;99.90;;;;;;6185482;23;20005;-88
2022/05/04 11:49:48;;;;;;;2.83;1.33;;;19.30;99.90;;;;;;6212864;23;20443;-89
2022/05/04 11:52:14;;;;;;;2.42;1.30;;;19.50;99.90;;;;;;6185662;23;20009;-89
2022/05/04 11:54:44;;;;;;;2.65;1.30;;;19.60;99.90;;;;;;6185646;23;20384;-88
2022/05/04 11:57:12;;;;;;;6.60;1.73;;;19.70;99.90;;;;;;6211863;23;19997;-89
2022/05/04 11:59:39;;;;;;;4.70;1.90;;;20.10;99.90;;;;;;6188795;23;20111;-88
2022/05/04 12:02:08;;;;;;;3.80;2.05;;;20.30;99.90;;;;;;6214531;23;19997;-88
2022/05/04 12:04:42;;;;;;;3.35;1.75;;;20.30;99.90;;;;;;6187719;23;20039;-89
2022/05/04 12:07:08;;;;;;;2.95;1.35;;;20.40;99.90;;;;;;6188102;23;20001;-89
2022/05/04 12:09:34;;;;;;;3.45;1.85;;;20.20;99.90;;;;;;6214387;23;20254;-89
2022/05/04 12:12:03;;;;;;;4.85;1.50;;;20.10;99.90;;;;;;6215260;23;20469;-88
2022/05/04 12:14:35;;;;;;;2.67;1.40;;;20.10;99.90;;;;;;6188144;23;20095;-89
2022/05/04 12:17:05;;;;;;;3.30;1.13;;;20.10;99.90;;;;;;6186942;23;20020;-89
2022/05/04 12:19:34;;;;;;;2.80;1.20;;;19.60;99.90;;;;;;6186211;23;20000;-88
2022/05/04 12:22:04;;;;;;;3.33;1.50;;;19.30;99.90;;;;;;6214693;23;20085;-89
2022/05/04 12:24:31;;;;;;;2.92;1.40;;;19.00;99.90;;;;;;6188030;23;20000;-87
2022/05/04 12:27:19;;;;;;;;;;;;;;;;;;;;;
2022/05/04 12:37:24;;;;;;;4.47;1.58;;;19.90;99.90;;;;;;6062719;23;20523;-88
2022/05/04 12:40:42;;;;;;;3.70;1.30;;;20.00;99.90;;;;;;6039730;23;20319;-90
2022/05/04 12:43:11;;;;;;;3.10;1.70;;;20.00;99.90;;;;;;6047299;23;20037;-89
2022/05/04 12:45:47;;;;;;;3.72;1.70;;;19.60;99.90;;;;;;6212798;23;20079;-88
2022/05/04 12:48:43;;;;;;;3.70;1.70;;;19.50;99.90;;;;;;6187065;23;20008;-87
2022/05/04 12:51:25;;;;;;;3.40;1.40;;;19.10;99.90;;;;;;6186662;23;20068;-88
2022/05/04 12:54:00;;;;;;;1.92;0.93;;;19.10;99.90;;;;;;6187805;23;20032;-90
2022/05/04 12:56:46;;;;;;;3.13;1.40;;;19.20;99.90;;;;;;6214185;23;20000;-91
2022/05/04 12:59:13;;;;;;;2.78;1.10;;;18.80;99.90;;;;;;6187673;23;20020;-90
2022/05/04 13:01:39;;;;;;;1.70;0.77;;;18.90;99.90;;;;;;6187824;23;20004;-89
2022/05/04 13:04:15;;;;;;;1.88;0.80;;;18.80;99.90;;;;;;6187393;23;20034;-90
2022/05/04 13:06:44;;;;;;;2.58;1.05;;;18.70;99.90;;;;;;6187203;23;20008;-90
2022/05/04 13:09:22;;;;;;;1.85;1.10;;;18.50;99.90;;;;;;6215424;23;20075;-90
2022/05/04 13:12:14;;;;;;;2.38;1.20;;;18.60;99.90;;;;;;6214653;23;20501;-91
2022/05/04 13:14:59;;;;;;;2.70;1.10;;;18.60;99.90;;;;;;6171812;23;20080;-90
2022/05/04 13:17:36;;;;;;;1.38;0.80;;;18.60;99.90;;;;;;6186957;23;20035;-90
2022/05/04 13:20:05;;;;;;;2.90;1.05;;;18.50;99.90;;;;;;6208221;23;20462;-90
2022/05/04 13:22:32;;;;;;;3.00;1.08;;;18.20;99.90;;;;;;6185668;23;20015;-90
2022/05/04 13:25:00;;;;;;;2.70;1.10;;;18.30;99.90;;;;;;6183480;23;20016;-87
2022/05/04 13:27:27;;;;;;;2.13;1.00;;;18.40;99.90;;;;;;6210485;23;20114;-87
2022/05/04 13:29:53;;;;;;;2.15;1.00;;;18.50;99.90;;;;;;6184988;23;20005;-88
2022/05/04 13:32:19;;;;;;;2.13;1.20;;;18.40;99.90;;;;;;6211048;23;20031;-88
2022/05/04 13:34:44;;;;;;;5.80;1.25;;;18.60;99.90;;;;;;6184656;23;20371;-88
2022/05/04 13:37:10;;;;;;;3.20;1.33;;;18.50;99.90;;;;;;6184835;23;20357;-87
2022/05/04 13:39:36;;;;;;;2.35;1.30;;;18.70;99.90;;;;;;6212684;23;20005;-88
2022/05/04 13:42:03;;;;;;;2.53;1.23;;;18.70;99.90;;;;;;6213114;23;20004;-88
2022/05/04 13:44:30;;;;;;;2.90;1.30;;;18.70;99.90;;;;;;6186771;23;20012;-88
2022/05/04 13:46:55;;;;;;;4.72;1.25;;;18.80;99.90;;;;;;6212806;23;20008;-89
2022/05/04 13:49:22;;;;;;;2.35;1.00;;;18.90;99.90;;;;;;6212605;23;20008;-88
2022/05/04 13:54:32;;;;;;;2.50;1.20;;;18.50;99.90;;;;;;6209415;23;20088;-91
2022/05/04 13:57:14;;;;;;;2.22;1.10;;;18.60;99.90;;;;;;6213199;23;20020;-91
2022/05/04 13:59:54;;;;;;;2.78;0.77;;;18.50;99.90;;;;;;6185700;23;20013;-91
2022/05/04 14:02:19;;;;;;;2.50;1.10;;;18.70;99.90;;;;;;6212582;23;20031;-91
2022/05/04 14:05:08;;;;;;;4.63;1.55;;;18.50;99.90;;;;;;6212518;23;20008;-90
2022/05/04 14:07:40;;;;;;;2.08;0.98;;;18.20;99.90;;;;;;6169796;23;20155;-91
2022/05/04 14:10:37;;;;;;;2.53;1.00;;;18.20;99.90;;;;;;6190970;23;20092;-92
2022/05/04 14:13:03;;;;;;;2.33;0.80;;;18.10;99.90;;;;;;6188757;23;20100;-91
2022/05/04 14:15:47;;;;;;;4.85;0.80;;;18.00;99.90;;;;;;6185946;23;20015;-91
2022/05/04 14:18:21;;;;;;;1.55;0.77;;;18.10;99.90;;;;;;6185800;23;20000;-90
2022/05/04 14:21:09;;;;;;;2.92;0.80;;;17.90;99.90;;;;;;6185350;23;20009;-92
2022/05/04 14:23:43;;;;;;;1.75;0.60;;;17.80;99.90;;;;;;6186071;23;20020;-91
2022/05/04 14:26:16;;;;;;;1.42;0.80;;;18.00;99.90;;;;;;6213317;23;20079;-91
2022/05/04 14:28:48;;;;;;;1.30;0.60;;;18.10;99.90;;;;;;6187126;23;20075;-91
2022/05/04 14:31:13;;;;;;;2.10;0.60;;;18.00;99.90;;;;;;6187017;23;20017;-91
2022/05/04 14:34:19;;;;;;;1.80;0.50;;;18.20;99.90;;;;;;6188458;23;20487;-91
2022/05/04 14:37:20;;;;;;;1.77;0.45;;;18.10;99.90;;;;;;6208339;23;20431;-93
2022/05/04 14:40:01;;;;;;;3.05;0.60;;;18.20;99.90;;;;;;6187875;23;20009;-91
2022/05/04 14:43:12;;;;;;;0.88;0.40;;;18.40;99.90;;;;;;6186670;23;20024;-91
2022/05/04 14:46:37;;;;;;;1.33;0.50;;;18.50;99.90;;;;;;6182586;23;20009;-89
2022/05/04 14:49:43;;;;;;;;;;;;;;;;;;;;;
2022/05/04 14:52:38;;;;;;;1.65;0.50;;;18.80;99.90;;;;;;6213379;23;20084;-92
2022/05/04 14:56:03;;;;;;;;;;;;;;;;;;;;;
2022/05/04 15:05:25;;;;;;;1.35;0.50;;;19.50;99.50;;;;;;6111155;23;20000;-90